Airfield :
LOGIN :

Register | Disclaimer

   EN    FR    IT 

 










Legend :    VFR   Marginal VFR   IFR   Intensive IFR   Very Intensive IFR
Visi :
Ceiling :
>= 8 km
>= 3000ft
5 to 8 km
1000 to 3000 ft
1500m to 5 km
500 to 1000 ft
800 to 1500m
200 to 500 ft
< 800m
< 200 ft
Symbols :   Thunderstorms  Fog  Heavy snow  Heavy precipitations  Wind > 20 kt
SIGMETs :     Misc.  Thunderstorms  Icing  Turbulence  Mountain Waves  Volcanic Ashes






- Airport Elevation : 268 ft
- IATA code : BFS


EGAA - Belfast Aldergrove

CURRENT METAR :
  • 301220Z 24010KT 210V310 CAVOK 10/06 Q1012

EXPIRED METARs :
  • 301150Z 24012KT 210V270 CAVOK 10/07 Q1012
  • 301120Z 23009KT CAVOK 10/07 Q1011
  • 301050Z 23011KT 9999 FEW020 09/07 Q1011
  • 301020Z 22009KT 9999 FEW020 09/07 Q1010

TAF TAF EGAA
Valid from the 30 at 12:00 until the 31 at 12:00 UTC


301057Z 3012/3112 24010KT 9999 SCT030
BECMG 3015/3018 14007KT
BECMG 3101/3103 13020G35KT
TEMPO 3103/3112 6000 RA BKN008
PROB30
TEMPO 3104/3108 2000 +RA RADZ BKN004
BECMG 3106/3110 16025G45KT
BECMG 3110/3112 19020G35KT
TEMPO 3110/3112 3000 +RA



MET'MAP, your aeronautical weather chart ! - Copyright ORBIFLY December 2007 - Disclaimer

ORBIFLY MET'MAP TEAM :

Programming & Development : Alexandra Zaïnal
Concept & original design : Baudouin d'Aumeries
Assistance for programming : Marc-Olivier Méhu
Technical & hardware support : Manuel Goepfert

Contact : metmap@orbifly.com




SOURCES & CREDITS :

   NOAA